Winnebago, Illinois
Current Conditions -  °F | °C
As of 8:10 AM on Thursday 29 Jan 2015 (Local Time) from KRFD Reporting Station
Haze Haze  
Wind Chill: 22°   Ceiling: 1500
Heat Index: 33°   Visibility: 6mi
Dew Point: 27°   Wind: 18mph
Humidity: 78%   Direction: 330°NNW
Pressure: 29.89"   Gusts: NA
Location:  42.27°N, 89.24°W
Report Text: KRFD 291410Z 33016KT 6SM HZ OVC015 01/M03 A2989 RMK AO2 T00061028
Loading
Personal Weather Stations






























Interactive Weather Map New forecast layout! Learn more

10-Day Weather Forecast

Advertisements
Track Severe Weather on mobile